Time;durP1;ratioP1;P1;durP2;ratioP2;P2;SDS_P1;SDS_P2;PMS_P1;PMS_P2;Temp;Humidity;BMP_temperature;BMP_pressure;BME280_temperature;BME280_humidity;BME280_pressure;Samples;Min_cycle;Max_cycle;Signal;HPM_P1;HPM_P2
2024/02/14 00:01:10;;;;;;;4.45;1.88;;;;;;;8.77;45.64;101199.75;5005874;28;20042;-77
2024/02/14 00:03:38;;;;;;;3.67;1.80;;;;;;;8.75;45.37;101196.28;5026459;28;20045;-77
2024/02/14 00:06:07;;;;;;;3.85;1.67;;;;;;;8.76;45.98;101191.66;5009001;28;20382;-77
2024/02/14 00:08:35;;;;;;;3.13;2.00;;;;;;;8.76;45.71;101194.38;5028025;28;20513;-77
2024/02/14 00:11:03;;;;;;;3.30;2.00;;;;;;;8.76;46.05;101200.72;5029594;28;20060;-77
2024/02/14 00:13:33;;;;;;;2.85;1.73;;;;;;;8.76;45.63;101195.25;5009779;28;20125;-77
2024/02/14 00:16:03;;;;;;;2.70;1.60;;;;;;;8.76;45.85;101194.38;5023392;28;20049;-77
2024/02/14 00:18:33;;;;;;;3.33;1.70;;;;;;;8.77;45.86;101193.41;5013468;28;20037;-77
2024/02/14 00:21:02;;;;;;;3.25;1.55;;;;;;;8.75;45.72;101192.69;5010588;28;20132;-77
2024/02/14 00:23:30;;;;;;;4.55;1.40;;;;;;;8.76;45.86;101192.53;5027527;28;20128;-78
2024/02/14 00:25:58;;;;;;;2.75;1.33;;;;;;;8.76;46.08;101194.38;5029036;28;20125;-77
2024/02/14 00:28:27;;;;;;;3.80;1.08;;;;;;;8.76;45.72;101187.06;5028955;28;20056;-78
2024/02/14 00:30:55;;;;;;;2.80;1.30;;;;;;;8.75;46.02;101193.56;5009375;28;20505;-77
2024/02/14 00:33:23;;;;;;;4.32;1.40;;;;;;;8.76;46.42;101183.47;5002900;28;20062;-78
2024/02/14 00:35:54;;;;;;;2.38;1.38;;;;;;;8.76;46.11;101178.88;5032049;28;20129;-78
2024/02/14 00:38:22;;;;;;;3.67;1.20;;;;;;;8.75;46.44;101179.91;5030443;28;20045;-77
2024/02/14 00:40:50;;;;;;;3.55;1.50;;;;;;;8.74;46.61;101174.56;5034657;28;20053;-78
2024/02/14 00:43:18;;;;;;;3.13;1.50;;;;;;;8.73;46.29;101179.13;5031378;28;20068;-77
2024/02/14 00:45:47;;;;;;;3.03;1.50;;;;;;;8.71;46.66;101181.97;5015523;28;20551;-77
2024/02/14 00:48:15;;;;;;;3.95;1.50;;;;;;;8.70;46.45;101179.34;5029334;28;20046;-77
2024/02/14 00:50:43;;;;;;;3.80;1.48;;;;;;;8.70;46.67;101176.63;5039580;28;20472;-77
2024/02/14 00:53:13;;;;;;;3.42;1.90;;;;;;;8.70;46.82;101179.34;5028683;28;20052;-77
2024/02/14 00:55:41;;;;;;;3.83;1.60;;;;;;;8.68;46.66;101175.88;5038675;23;20048;-86
2024/02/14 00:58:10;;;;;;;2.78;1.45;;;;;;;8.67;46.71;101175.00;5028037;28;20409;-86
2024/02/14 01:00:39;;;;;;;3.25;1.80;;;;;;;8.69;46.85;101177.59;5010972;28;20486;-87
2024/02/14 01:03:12;;;;;;;3.40;1.27;;;;;;;8.67;46.89;101179.59;5016910;28;20074;-86
2024/02/14 01:05:43;;;;;;;2.47;1.50;;;;;;;8.66;46.96;101166.94;5011912;28;20049;-86
2024/02/14 01:08:20;;;;;;;2.70;1.33;;;;;;;8.68;46.74;101170.41;4973689;28;20042;-87
2024/02/14 01:10:50;;;;;;;2.97;1.35;;;;;;;8.67;46.65;101168.69;4991124;28;20053;-87
2024/02/14 01:13:18;;;;;;;3.40;1.35;;;;;;;8.65;46.95;101155.16;4984426;28;20070;-87
2024/02/14 01:15:46;;;;;;;2.80;1.17;;;;;;;8.67;47.06;101158.63;4981064;28;20053;-87
2024/02/14 01:18:14;;;;;;;2.22;1.10;;;;;;;8.67;47.01;101150.44;4972315;28;20050;-87
2024/02/14 01:20:43;;;;;;;2.00;1.02;;;;;;;8.68;47.10;101154.03;4977231;28;20039;-86
2024/02/14 01:23:11;;;;;;;1.67;1.00;;;;;;;8.68;46.88;101148.56;4972341;28;20053;-87
2024/02/14 01:25:42;;;;;;;1.88;1.10;;;;;;;8.68;46.75;101143.13;4987822;28;20348;-86
2024/02/14 01:28:10;;;;;;;2.72;1.30;;;;;;;8.68;47.07;101154.91;4990417;28;20556;-86
2024/02/14 01:30:38;;;;;;;2.28;1.00;;;;;;;8.69;47.04;101155.78;4991080;28;20046;-85
2024/02/14 01:33:06;;;;;;;3.63;1.10;;;;;;;8.70;46.60;101158.41;4989183;28;20049;-86
2024/02/14 01:35:34;;;;;;;2.92;1.25;;;;;;;8.68;47.04;101146.72;4985501;28;20071;-86
2024/02/14 01:38:02;;;;;;;1.65;1.00;;;;;;;8.71;46.83;101156.53;4986608;28;20049;-87
2024/02/14 01:40:30;;;;;;;2.13;1.10;;;;;;;8.71;47.02;101154.69;4976865;28;20047;-86
2024/02/14 01:43:00;;;;;;;1.70;0.82;;;;;;;8.71;46.88;101143.78;4991071;28;20129;-86
2024/02/14 01:45:29;;;;;;;1.65;0.90;;;;;;;8.73;46.80;101159.16;4988805;28;20048;-87
2024/02/14 01:47:58;;;;;;;2.53;0.90;;;;;;;8.73;46.76;101150.97;4986483;28;20532;-85
2024/02/14 01:50:29;;;;;;;2.45;1.00;;;;;;;8.74;46.92;101150.00;4991831;28;20439;-86
2024/02/14 01:53:00;;;;;;;1.83;0.90;;;;;;;8.73;47.13;101137.34;4987357;28;20070;-85
2024/02/14 01:55:29;;;;;;;2.60;0.90;;;;;;;8.75;46.99;101138.97;4972546;28;20053;-86
2024/02/14 01:57:57;;;;;;;2.03;0.90;;;;;;;8.75;46.95;101140.81;4975128;28;20122;-86
2024/02/14 02:00:27;;;;;;;2.67;1.30;;;;;;;8.77;47.24;101136.09;4986220;28;20038;-87
2024/02/14 02:02:57;;;;;;;2.53;1.10;;;;;;;8.77;47.10;101141.56;4975643;28;20399;-85
2024/02/14 02:05:25;;;;;;;1.20;0.80;;;;;;;8.76;47.22;101148.88;4966391;28;20046;-87
2024/02/14 02:07:54;;;;;;;1.25;0.73;;;;;;;8.77;47.16;101144.28;4987745;28;20050;-87
2024/02/14 02:10:25;;;;;;;2.03;1.10;;;;;;;8.77;47.11;101141.56;4972643;28;20477;-87
2024/02/14 02:12:59;;;;;;;1.60;0.93;;;;;;;8.79;47.41;101137.72;4971945;28;20061;-87
2024/02/14 02:15:29;;;;;;;1.92;1.05;;;;;;;8.76;46.96;101127.03;4974290;28;20042;-87
2024/02/14 02:17:59;;;;;;;1.92;1.13;;;;;;;8.78;47.29;101140.56;4987361;28;20054;-88
2024/02/14 02:20:28;;;;;;;2.40;1.10;;;;;;;8.76;47.30;101134.34;4989044;28;20066;-87
2024/02/14 02:22:58;;;;;;;3.05;1.02;;;;;;;8.79;47.09;101132.28;4972303;28;20097;-87
2024/02/14 02:25:26;;;;;;;2.95;1.20;;;;;;;8.77;47.32;101136.97;4985984;28;20046;-87
2024/02/14 02:27:57;;;;;;;2.15;1.08;;;;;;;8.77;47.75;101136.97;4986161;28;20049;-87
2024/02/14 02:30:27;;;;;;;2.47;1.00;;;;;;;8.77;47.51;101147.88;4994848;28;20129;-87
2024/02/14 02:32:55;;;;;;;2.78;1.17;;;;;;;8.78;47.35;101144.19;4976034;28;20102;-87
2024/02/14 02:35:25;;;;;;;2.08;1.00;;;;;;;8.80;47.32;101152.25;4990444;28;20057;-87
2024/02/14 02:37:53;;;;;;;2.55;1.10;;;;;;;8.80;47.58;101146.78;4973613;28;20092;-86
2024/02/14 02:40:23;;;;;;;2.80;1.10;;;;;;;8.80;47.42;101153.13;4989771;28;20112;-86
2024/02/14 02:42:51;;;;;;;3.03;1.10;;;;;;;8.80;47.35;101149.53;4989205;28;20120;-87
2024/02/14 02:45:19;;;;;;;1.20;0.85;;;;;;;8.81;47.41;101145.81;4996573;28;20039;-86
2024/02/14 02:47:47;;;;;;;1.75;1.23;;;;;;;8.82;47.71;101159.34;4980738;28;20042;-87
2024/02/14 02:50:16;;;;;;;1.80;0.90;;;;;;;8.82;47.49;101151.16;4992273;28;20144;-87
2024/02/14 02:52:44;;;;;;;2.15;0.90;;;;;;;8.83;47.22;101152.91;4996670;28;20141;-87
2024/02/14 02:55:12;;;;;;;1.55;0.90;;;;;;;8.83;47.27;101150.19;4977367;28;20475;-86
2024/02/14 02:57:43;;;;;;;2.47;0.98;;;;;;;8.84;47.98;101146.44;4992599;28;20046;-87
2024/02/14 03:00:13;;;;;;;2.13;1.00;;;;;;;8.85;47.73;101150.03;4984881;28;20063;-87
2024/02/14 03:02:44;;;;;;;1.83;0.80;;;;;;;8.85;47.54;101150.03;5003414;28;20069;-86
2024/02/14 03:05:17;;;;;;;1.42;0.80;;;;;;;8.84;47.70;101137.38;5006778;28;20224;-86
2024/02/14 03:07:48;;;;;;;1.25;0.80;;;;;;;8.84;47.50;101142.84;5000726;28;20042;-85
2024/02/14 03:10:17;;;;;;;1.42;0.82;;;;;;;8.87;47.59;101137.16;5012160;28;20048;-87
2024/02/14 03:12:48;;;;;;;1.02;0.68;;;;;;;8.87;47.73;101150.78;4988757;28;20050;-87
2024/02/14 03:15:17;;;;;;;1.92;1.00;;;;;;;8.88;47.74;101141.63;4985725;28;20138;-87
2024/02/14 03:17:45;;;;;;;1.63;0.75;;;;;;;8.88;47.77;101141.63;4972727;28;20047;-87
2024/02/14 03:20:14;;;;;;;1.58;0.80;;;;;;;8.89;47.67;101152.44;4992774;28;20086;-86
2024/02/14 03:22:46;;;;;;;2.17;1.00;;;;;;;8.89;48.15;101136.06;4973424;28;20129;-86
2024/02/14 03:25:18;;;;;;;1.60;0.90;;;;;;;8.92;48.06;101129.47;4968965;28;20049;-86
2024/02/14 03:27:51;;;;;;;1.73;0.80;;;;;;;8.90;48.09;101128.75;4990358;28;20050;-86
2024/02/14 03:30:20;;;;;;;1.48;1.10;;;;;;;8.92;48.33;101129.47;4974628;28;20057;-86
2024/02/14 03:32:48;;;;;;;2.45;1.25;;;;;;;8.92;48.60;101124.88;4972398;28;20097;-86
2024/02/14 03:35:17;;;;;;;2.35;1.02;;;;;;;8.95;48.31;101121.94;4972730;28;20058;-86
2024/02/14 03:37:48;;;;;;;1.35;1.00;;;;;;;8.97;48.63;101130.00;4982586;28;20039;-86
2024/02/14 03:40:17;;;;;;;1.90;1.10;;;;;;;8.97;48.86;101128.16;4990553;28;20045;-86
2024/02/14 03:42:45;;;;;;;1.85;1.05;;;;;;;8.98;48.54;101124.44;4987446;28;20113;-85
2024/02/14 03:45:15;;;;;;;3.00;1.35;;;;;;;9.01;48.83;101117.84;4976608;28;20529;-85
2024/02/14 03:47:43;;;;;;;2.88;1.13;;;;;;;9.00;48.81;101116.97;4993532;28;20049;-84
2024/02/14 03:50:11;;;;;;;2.20;1.08;;;;;;;9.01;49.00;101121.44;4984438;28;20053;-84
2024/02/14 03:52:39;;;;;;;2.10;1.02;;;;;;;9.01;49.02;101118.72;4974581;28;20031;-84
2024/02/14 03:55:13;;;;;;;2.47;1.20;;;;;;;9.04;48.74;101121.22;4973990;28;20477;-85
2024/02/14 03:57:41;;;;;;;2.10;1.27;;;;;;;9.05;48.82;101124.81;4989401;28;20050;-84
2024/02/14 04:00:11;;;;;;;2.28;1.15;;;;;;;9.05;49.35;101117.50;4970845;28;20039;-84
2024/02/14 04:02:41;;;;;;;2.22;1.23;;;;;;;9.08;49.35;101128.19;4968689;28;20054;-84
2024/02/14 04:05:09;;;;;;;2.50;1.20;;;;;;;9.07;49.24;101118.28;4969247;28;20113;-84
2024/02/14 04:07:38;;;;;;;1.77;1.10;;;;;;;9.07;49.42;101125.59;4969248;28;20495;-84
2024/02/14 04:10:07;;;;;;;2.60;1.58;;;;;;;9.12;49.43;101130.69;4984934;28;20448;-84
2024/02/14 04:12:35;;;;;;;2.25;1.10;;;;;;;9.10;49.59;101141.72;4987421;28;20038;-84
2024/02/14 04:15:04;;;;;;;2.42;1.10;;;;;;;9.13;49.28;101140.63;4967168;28;20038;-86
2024/02/14 04:17:32;;;;;;;2.40;1.10;;;;;;;9.10;49.16;101138.97;4972490;28;20142;-86
2024/02/14 04:20:01;;;;;;;2.15;1.15;;;;;;;9.16;49.41;101151.31;4971988;28;20066;-86
2024/02/14 04:22:30;;;;;;;2.22;1.20;;;;;;;9.16;49.71;101141.25;4987560;28;20096;-84
2024/02/14 04:24:57;;;;;;;2.42;1.20;;;;;;;9.17;49.47;101140.25;4985666;28;20088;-83
2024/02/14 04:27:25;;;;;;;2.67;1.40;;;;;;;9.17;49.53;101148.44;4972862;28;20042;-86
2024/02/14 04:29:53;;;;;;;3.20;1.50;;;;;;;9.19;49.50;101145.59;4990625;28;20059;-87
2024/02/14 04:32:22;;;;;;;2.70;1.33;;;;;;;9.20;49.59;101147.34;4987937;28;20136;-86
2024/02/14 04:34:50;;;;;;;2.88;1.40;;;;;;;9.22;49.56;101151.72;4967346;28;20164;-86
2024/02/14 04:37:43;;;;;;;2.00;1.15;;;;;;;9.23;50.46;101158.91;4983847;28;20205;-86
2024/02/14 04:40:12;;;;;;;3.47;1.50;;;;;;;9.21;49.97;101160.00;4969822;28;20065;-87
2024/02/14 04:42:40;;;;;;;2.97;1.25;;;;;;;9.23;49.33;101160.78;4969958;28;20133;-86
2024/02/14 04:45:09;;;;;;;2.97;1.50;;;;;;;9.26;49.83;101155.06;4985978;28;20046;-86
2024/02/14 04:47:37;;;;;;;2.75;1.30;;;;;;;9.28;49.63;101153.09;4992946;28;20444;-86
2024/02/14 04:50:06;;;;;;;2.28;1.20;;;;;;;9.27;49.89;101152.22;4989003;28;20059;-85
2024/02/14 04:52:34;;;;;;;2.42;1.20;;;;;;;9.27;49.70;101157.66;4971092;28;20093;-87
2024/02/14 04:55:04;;;;;;;3.50;1.40;;;;;;;9.30;49.74;101160.19;4971634;28;20192;-86
2024/02/14 04:57:35;;;;;;;2.75;1.40;;;;;;;9.30;49.83;101160.19;4983302;28;20479;-87
2024/02/14 05:00:05;;;;;;;2.28;1.20;;;;;;;9.32;49.89;101166.41;4988470;28;20039;-88
2024/02/14 05:02:33;;;;;;;3.08;1.30;;;;;;;9.30;50.16;101165.63;4988190;28;20038;-87
2024/02/14 05:05:02;;;;;;;2.80;1.48;;;;;;;9.34;49.76;101163.53;4969941;28;20058;-87
2024/02/14 05:07:31;;;;;;;2.67;1.30;;;;;;;9.32;49.67;101174.59;4984206;28;20112;-87
2024/02/14 05:09:59;;;;;;;2.20;1.20;;;;;;;9.33;49.84;101175.47;4970561;28;20089;-86
2024/02/14 05:12:28;;;;;;;2.92;1.30;;;;;;;9.35;49.82;101173.47;4987175;28;20050;-86
2024/02/14 05:14:57;;;;;;;3.03;1.50;;;;;;;9.36;50.21;101183.41;4972280;28;20478;-86
2024/02/14 05:17:24;;;;;;;3.45;1.70;;;;;;;9.38;49.97;101178.69;4991634;28;20044;-87
2024/02/14 05:19:53;;;;;;;4.38;1.73;;;;;;;9.38;49.70;101175.97;4971888;28;20098;-87
2024/02/14 05:22:21;;;;;;;2.58;1.40;;;;;;;9.38;49.70;101187.81;4984224;28;20058;-86
2024/02/14 05:24:49;;;;;;;2.65;1.33;;;;;;;9.38;50.04;101187.81;4992563;28;20116;-86
2024/02/14 05:27:17;;;;;;;2.22;1.20;;;;;;;9.40;50.07;101190.41;4988359;28;20042;-86
2024/02/14 05:29:46;;;;;;;1.77;1.15;;;;;;;9.41;49.87;101193.00;4990648;28;20047;-86
2024/02/14 05:32:16;;;;;;;2.78;1.27;;;;;;;9.40;50.33;101195.88;4987778;28;20050;-87
2024/02/14 05:34:44;;;;;;;3.72;1.70;;;;;;;9.40;50.46;101195.88;4992684;28;20423;-86
2024/02/14 05:37:12;;;;;;;2.92;1.52;;;;;;;9.40;50.13;101193.16;4969139;28;20320;-86
2024/02/14 05:39:41;;;;;;;2.30;1.33;;;;;;;9.40;49.93;101190.41;4989542;28;20509;-86
2024/02/14 05:42:09;;;;;;;2.95;1.50;;;;;;;9.42;50.54;101202.06;4974349;28;20031;-86
2024/02/14 05:44:37;;;;;;;2.10;1.30;;;;;;;9.43;50.39;101192.91;4970951;28;20525;-87
2024/02/14 05:47:06;;;;;;;2.92;1.20;;;;;;;9.44;50.29;101198.25;4989248;28;20078;-87
2024/02/14 05:49:34;;;;;;;2.67;1.38;;;;;;;9.43;50.56;101206.56;4986309;28;20098;-86
2024/02/14 05:52:03;;;;;;;2.88;1.20;;;;;;;9.42;50.45;101199.34;4971065;28;20049;-85
2024/02/14 05:54:31;;;;;;;2.03;1.17;;;;;;;9.44;50.33;101197.38;4973562;28;20050;-86
2024/02/14 05:56:59;;;;;;;2.63;1.40;;;;;;;9.44;50.43;101189.19;4982658;28;20073;-87
2024/02/14 05:59:27;;;;;;;2.45;1.40;;;;;;;9.44;50.83;101195.50;4986287;28;20391;-88
2024/02/14 06:01:55;;;;;;;2.13;1.17;;;;;;;9.44;50.49;101186.44;4988181;28;20491;-87
2024/02/14 06:04:25;;;;;;;2.47;1.55;;;;;;;9.45;50.77;101189.06;4989712;28;20100;-87
2024/02/14 06:06:54;;;;;;;3.75;1.40;;;;;;;9.43;50.92;101196.50;4984767;28;20077;-87
2024/02/14 06:09:22;;;;;;;2.47;1.40;;;;;;;9.44;50.47;101198.25;4982285;28;20051;-85
2024/02/14 06:11:50;;;;;;;2.35;1.50;;;;;;;9.43;50.79;101196.50;4986215;28;20051;-87
2024/02/14 06:14:18;;;;;;;3.53;1.40;;;;;;;9.45;51.09;101199.13;4968976;28;20406;-87
2024/02/14 06:16:46;;;;;;;2.80;1.58;;;;;;;9.45;51.02;101199.13;4970033;28;20047;-87
2024/02/14 06:19:14;;;;;;;5.88;1.50;;;;;;;9.45;50.75;101201.84;4969730;28;20058;-86
2024/02/14 06:21:44;;;;;;;2.90;1.35;;;;;;;9.47;50.92;101202.59;4985683;28;20520;-86
2024/02/14 06:24:13;;;;;;;2.72;1.50;;;;;;;9.46;51.04;101198.13;4984233;28;20391;-87
2024/02/14 06:26:41;;;;;;;2.67;1.40;;;;;;;9.47;51.14;101199.88;4983114;28;20467;-87
2024/02/14 06:29:10;;;;;;;2.78;1.30;;;;;;;9.48;50.89;101198.03;4986237;28;20217;-87
2024/02/14 06:31:38;;;;;;;2.28;1.48;;;;;;;9.46;51.22;101195.41;4987148;28;20406;-86
2024/02/14 06:34:07;;;;;;;2.40;1.40;;;;;;;9.48;51.36;101201.63;4983213;28;20058;-87
2024/02/14 06:36:35;;;;;;;2.45;1.50;;;;;;;9.48;50.94;101203.47;4969445;28;20038;-86
2024/02/14 06:39:05;;;;;;;3.53;1.42;;;;;;;9.51;51.20;101216.88;4984448;28;20482;-87
2024/02/14 06:41:33;;;;;;;2.75;1.48;;;;;;;9.49;51.00;101211.56;4971123;28;20402;-86
2024/02/14 06:44:02;;;;;;;3.53;1.30;;;;;;;9.48;51.34;101212.56;4969026;28;20038;-86
2024/02/14 06:46:30;;;;;;;2.53;1.40;;;;;;;9.49;51.53;101211.56;4981560;28;20403;-87
2024/02/14 06:48:58;;;;;;;2.65;1.40;;;;;;;9.52;51.12;101224.09;4966648;28;20128;-85
2024/02/14 06:51:26;;;;;;;2.47;1.38;;;;;;;9.51;51.14;101217.75;4984346;28;20190;-86
2024/02/14 06:53:54;;;;;;;2.42;1.30;;;;;;;9.51;51.19;101219.63;4967684;28;20106;-86
2024/02/14 06:56:24;;;;;;;2.60;1.50;;;;;;;9.52;51.32;101215.91;4983233;28;20109;-86
2024/02/14 06:58:59;;;;;;;2.15;1.10;;;;;;;9.54;51.45;101216.66;4971134;28;20152;-86
2024/02/14 07:01:27;;;;;;;2.38;1.17;;;;;;;9.53;51.49;101225.84;4967626;28;20137;-85
2024/02/14 07:03:57;;;;;;;1.60;1.13;;;;;;;9.53;51.21;101231.31;4984045;28;20069;-86
2024/02/14 07:06:25;;;;;;;2.20;1.35;;;;;;;9.56;51.53;101239.28;4989118;28;20050;-86
2024/02/14 07:08:54;;;;;;;3.08;1.48;;;;;;;9.55;51.23;101243.88;4984667;28;20112;-87
2024/02/14 07:11:22;;;;;;;1.92;1.25;;;;;;;9.54;51.49;101242.13;4987077;28;20034;-86
2024/02/14 07:13:51;;;;;;;2.50;1.38;;;;;;;9.58;51.59;101240.00;4965636;28;20057;-87
2024/02/14 07:16:19;;;;;;;3.10;1.50;;;;;;;9.58;51.34;101253.66;4985159;28;20514;-86
2024/02/14 07:19:00;;;;;;;;;;;;;;;;;;;;;
2024/02/14 07:22:17;;;;;;;;;;;;;;;;;;;;;
2024/02/14 07:25:04;;;;;;;3.97;1.90;;;;;;;9.62;51.20;101250.59;5027891;23;20694;-77
2024/02/14 07:27:35;;;;;;;2.22;1.40;;;;;;;9.63;51.17;101251.47;5006516;28;20148;-78
2024/02/14 07:30:05;;;;;;;4.03;1.70;;;;;;;9.64;51.66;101251.34;5006674;28;20048;-77
2024/02/14 07:32:33;;;;;;;3.10;1.70;;;;;;;9.64;51.13;101254.09;5017151;28;20042;-77
2024/02/14 07:35:03;;;;;;;3.80;1.73;;;;;;;9.66;51.60;101257.56;5024146;28;20048;-77
2024/02/14 07:37:31;;;;;;;3.70;1.67;;;;;;;9.65;51.65;101249.50;5024233;28;20065;-77
2024/02/14 07:39:59;;;;;;;2.75;1.33;;;;;;;9.66;51.65;101251.25;5006444;28;20633;-78
2024/02/14 07:42:27;;;;;;;2.88;1.80;;;;;;;9.67;51.55;101258.44;5026507;28;20496;-77
2024/02/14 07:44:56;;;;;;;4.30;1.55;;;;;;;9.68;51.86;101258.31;5024657;28;20869;-78
2024/02/14 07:47:26;;;;;;;2.88;1.60;;;;;;;9.70;51.48;101267.28;5023025;28;20041;-78
2024/02/14 07:49:54;;;;;;;3.38;1.70;;;;;;;9.70;51.36;101261.81;5020033;28;20056;-78
2024/02/14 07:52:22;;;;;;;3.72;1.63;;;;;;;9.70;51.61;101267.28;5022298;28;20452;-78
2024/02/14 07:54:52;;;;;;;4.35;1.60;;;;;;;9.73;51.77;101272.50;5009322;28;20083;-77
2024/02/14 07:57:21;;;;;;;2.85;1.50;;;;;;;9.73;51.53;101271.63;5036623;28;20472;-77
2024/02/14 07:59:49;;;;;;;3.70;1.70;;;;;;;9.74;51.26;101265.19;5006206;28;20425;-78
2024/02/14 08:02:18;;;;;;;3.83;1.60;;;;;;;9.75;51.72;101267.78;5025217;28;20056;-77
2024/02/14 08:04:47;;;;;;;2.70;1.55;;;;;;;9.77;51.51;101274.00;5008999;28;20038;-78
2024/02/14 08:07:18;;;;;;;2.63;1.48;;;;;;;9.75;51.80;101266.91;5023699;28;20045;-77
2024/02/14 08:09:46;;;;;;;3.88;1.63;;;;;;;9.79;51.78;101272.03;5025219;28;20037;-78
2024/02/14 08:12:14;;;;;;;3.00;1.60;;;;;;;9.81;51.91;101277.38;5007553;28;20061;-77
2024/02/14 08:14:42;;;;;;;3.17;1.73;;;;;;;9.83;51.89;101272.63;5007412;28;20052;-78
2024/02/14 08:17:10;;;;;;;2.55;1.40;;;;;;;9.83;51.64;101272.63;5029405;28;20124;-78
2024/02/14 08:19:38;;;;;;;4.03;1.90;;;;;;;9.84;51.88;101272.53;5029393;28;20300;-78
2024/02/14 08:22:08;;;;;;;2.85;1.50;;;;;;;9.87;51.78;101265.97;5045552;28;20042;-78
2024/02/14 08:24:36;;;;;;;4.05;1.75;;;;;;;9.87;51.64;101268.69;5023263;28;20053;-77
2024/02/14 08:27:06;;;;;;;2.63;1.40;;;;;;;9.89;51.97;101271.31;5015944;28;20474;-78
2024/02/14 08:29:34;;;;;;;3.03;1.55;;;;;;;9.90;51.78;101278.53;5018108;28;20046;-76
2024/02/14 08:32:03;;;;;;;3.70;1.70;;;;;;;9.91;52.04;101272.91;5028018;28;20141;-76
2024/02/14 08:34:32;;;;;;;4.50;1.90;;;;;;;9.94;52.03;101271.81;5004242;28;20107;-77
2024/02/14 08:37:01;;;;;;;3.35;1.52;;;;;;;9.94;52.00;101277.28;5002654;28;20065;-77
2024/02/14 08:39:31;;;;;;;3.75;1.60;;;;;;;9.98;51.85;101284.28;5008347;28;20045;-77
2024/02/14 08:42:01;;;;;;;2.80;1.40;;;;;;;9.98;51.98;101279.66;5002185;28;20576;-77
2024/02/14 08:44:29;;;;;;;3.97;1.60;;;;;;;10.00;51.60;101282.25;5020638;28;20148;-78
2024/02/14 08:46:57;;;;;;;3.05;1.30;;;;;;;10.03;51.57;101279.28;5022822;28;20033;-77
2024/02/14 08:49:25;;;;;;;3.75;1.38;;;;;;;10.03;52.07;101282.03;5005551;28;20050;-77
2024/02/14 08:51:54;;;;;;;3.05;1.10;;;;;;;10.04;52.25;101292.84;5025028;28;20097;-77
2024/02/14 08:54:23;;;;;;;3.55;1.30;;;;;;;10.06;52.02;101292.75;5006776;28;20069;-76
2024/02/14 08:56:55;;;;;;;3.05;1.30;;;;;;;10.10;52.09;101299.69;5027154;28;20448;-76
2024/02/14 08:59:23;;;;;;;2.90;1.50;;;;;;;10.08;51.73;101296.19;5025787;28;20050;-77
2024/02/14 09:01:51;;;;;;;3.30;1.30;;;;;;;10.11;51.93;101294.09;5025674;28;20130;-77
2024/02/14 09:04:19;;;;;;;3.58;1.30;;;;;;;10.13;51.85;101283.94;5004088;28;20057;-77
2024/02/14 09:06:47;;;;;;;3.53;1.33;;;;;;;10.15;52.34;101292.03;5008728;28;20061;-77
2024/02/14 09:09:15;;;;;;;3.05;1.40;;;;;;;10.17;51.97;101292.75;5000878;28;20263;-77
2024/02/14 09:11:44;;;;;;;3.70;1.33;;;;;;;10.18;51.94;101292.63;5006447;28;20065;-77
2024/02/14 09:14:14;;;;;;;2.88;1.50;;;;;;;10.21;52.55;101280.59;5022182;28;20129;-78
2024/02/14 09:16:42;;;;;;;2.28;1.27;;;;;;;10.21;52.29;101281.47;5028818;28;20120;-77
2024/02/14 09:19:12;;;;;;;2.83;1.35;;;;;;;10.23;52.39;101284.91;5002899;28;20132;-77
2024/02/14 09:21:40;;;;;;;3.33;1.30;;;;;;;10.26;52.08;101282.94;5004449;28;20065;-77
2024/02/14 09:24:08;;;;;;;4.05;1.25;;;;;;;10.28;52.02;101290.03;5024111;28;20065;-76
2024/02/14 09:26:37;;;;;;;2.40;1.20;;;;;;;10.32;52.43;101293.41;5007718;28;20061;-77
2024/02/14 09:29:06;;;;;;;3.10;1.30;;;;;;;10.33;52.43;101295.13;5008728;28;20137;-76
2024/02/14 09:31:35;;;;;;;2.03;1.10;;;;;;;10.37;52.65;101292.03;5023683;28;20049;-76
2024/02/14 09:34:03;;;;;;;1.98;0.90;;;;;;;10.39;52.26;101284.59;5003594;28;20052;-77
2024/02/14 09:36:31;;;;;;;2.15;1.15;;;;;;;10.42;52.64;101287.06;5007521;28;20490;-78
2024/02/14 09:38:59;;;;;;;3.03;1.10;;;;;;;10.45;52.18;101285.97;5000641;28;20045;-77
2024/02/14 09:41:37;;;;;;;2.28;1.00;;;;;;;10.49;52.45;101292.91;5023911;28;20049;-76
2024/02/14 09:44:05;;;;;;;3.42;1.42;;;;;;;10.51;52.28;101296.41;5006396;28;20053;-76
2024/02/14 09:46:38;;;;;;;2.58;1.00;;;;;;;10.56;52.18;101299.69;5021377;28;20098;-77
2024/02/14 09:49:07;;;;;;;1.90;1.10;;;;;;;10.55;52.03;101298.81;4993428;28;20049;-77
2024/02/14 09:51:37;;;;;;;1.90;1.10;;;;;;;10.58;51.82;101294.94;5008923;28;20103;-77
2024/02/14 09:54:05;;;;;;;1.35;0.85;;;;;;;10.60;51.84;101303.91;5023486;28;20037;-77
2024/02/14 09:56:33;;;;;;;1.85;0.90;;;;;;;10.62;52.29;101306.53;5027610;28;20390;-77
2024/02/14 09:59:03;;;;;;;2.15;1.10;;;;;;;10.64;52.08;101312.75;5008816;28;20060;-77
2024/02/14 10:01:31;;;;;;;2.42;1.08;;;;;;;10.64;51.78;101315.50;5026706;28;20049;-76
2024/02/14 10:04:00;;;;;;;1.60;0.88;;;;;;;10.67;52.11;101313.34;5027995;28;20060;-77
2024/02/14 10:06:28;;;;;;;1.30;0.93;;;;;;;10.67;51.50;101317.97;5029735;28;20111;-77
2024/02/14 10:08:56;;;;;;;2.33;1.10;;;;;;;10.67;51.56;101321.56;5001734;28;20129;-77
2024/02/14 10:11:31;;;;;;;3.50;0.90;;;;;;;10.68;51.42;101320.59;5014792;28;20480;-77
2024/02/14 10:14:02;;;;;;;2.08;0.90;;;;;;;10.69;51.92;101316.84;5026408;28;20056;-77
2024/02/14 10:16:32;;;;;;;2.05;0.93;;;;;;;10.70;51.52;101310.38;5022810;28;20147;-77
2024/02/14 10:19:03;;;;;;;1.33;0.63;;;;;;;10.72;51.86;101324.81;5002106;28;20316;-77
2024/02/14 10:21:33;;;;;;;2.25;1.00;;;;;;;10.72;51.56;101321.22;5026443;28;20088;-76
2024/02/14 10:24:01;;;;;;;3.08;1.10;;;;;;;10.73;51.83;101322.97;5000752;28;20073;-77
2024/02/14 10:26:30;;;;;;;2.10;0.88;;;;;;;10.75;51.67;101326.44;5022673;28;20049;-77
2024/02/14 10:28:59;;;;;;;1.83;1.00;;;;;;;10.75;51.61;101324.56;5002969;28;20482;-76
2024/02/14 10:31:27;;;;;;;1.73;1.00;;;;;;;10.77;51.49;101322.56;5008868;28;20132;-76
2024/02/14 10:33:56;;;;;;;2.47;1.20;;;;;;;10.78;51.43;101321.59;5017546;28;20067;-77
2024/02/14 10:36:27;;;;;;;2.08;1.02;;;;;;;10.81;51.45;101331.44;5005604;28;20049;-76
2024/02/14 10:38:57;;;;;;;2.00;0.88;;;;;;;10.81;51.77;101334.16;5031788;28;20397;-76
2024/02/14 10:41:31;;;;;;;2.45;1.23;;;;;;;10.81;51.95;101337.75;5007262;28;20048;-77
2024/02/14 10:43:59;;;;;;;2.53;0.98;;;;;;;10.82;52.07;101330.41;5003013;28;20050;-76
2024/02/14 10:46:31;;;;;;;2.22;1.05;;;;;;;10.84;51.77;101339.38;5023880;28;20167;-76
2024/02/14 10:49:04;;;;;;;1.55;0.82;;;;;;;10.85;51.90;101335.63;5024368;28;20064;-76
2024/02/14 10:51:35;;;;;;;1.90;0.90;;;;;;;10.88;52.11;101329.94;5018667;28;20487;-76
2024/02/14 10:54:06;;;;;;;2.15;0.77;;;;;;;10.89;52.21;101327.06;5015973;28;20073;-76
2024/02/14 10:56:35;;;;;;;1.65;0.73;;;;;;;10.88;52.17;101330.81;5006707;28;20054;-77
2024/02/14 10:59:04;;;;;;;1.48;0.80;;;;;;;10.92;52.42;101334.13;5024336;28;20053;-76
2024/02/14 11:01:35;;;;;;;2.33;0.80;;;;;;;10.93;52.34;101333.16;5023941;28;20547;-76
2024/02/14 11:04:04;;;;;;;2.35;0.90;;;;;;;10.94;51.99;101340.38;5007886;28;20539;-77
2024/02/14 11:06:46;;;;;;;1.20;0.93;;;;;;;10.97;53.12;101341.00;5025210;28;20045;-76
2024/02/14 11:09:15;;;;;;;3.63;1.10;;;;;;;10.95;52.32;101343.00;5008488;28;20226;-77
2024/02/14 11:11:44;;;;;;;2.25;1.00;;;;;;;10.97;52.46;101343.75;5025510;28;20580;-76
2024/02/14 11:14:16;;;;;;;1.33;0.90;;;;;;;10.99;52.79;101339.00;5024139;28;20100;-76
2024/02/14 11:16:46;;;;;;;2.40;0.77;;;;;;;10.98;52.57;101334.50;5027077;28;20072;-76
2024/02/14 11:19:16;;;;;;;1.90;0.70;;;;;;;11.01;52.44;101336.13;5026051;28;20041;-76
2024/02/14 11:21:48;;;;;;;2.38;0.90;;;;;;;11.03;53.15;101331.41;5018853;28;20051;-76
2024/02/14 11:24:17;;;;;;;1.55;0.70;;;;;;;11.01;52.61;101329.78;5019059;28;20091;-76
2024/02/14 11:26:51;;;;;;;2.08;1.00;;;;;;;11.05;52.80;101331.28;5026647;28;20044;-76
2024/02/14 11:29:20;;;;;;;2.25;0.90;;;;;;;11.04;52.77;101352.31;5025394;28;20495;-76
2024/02/14 11:31:59;;;;;;;1.75;0.90;;;;;;;11.08;53.11;101333.75;5038023;28;20049;-76
2024/02/14 11:34:28;;;;;;;3.15;0.90;;;;;;;11.04;52.93;101333.16;5024579;28;20104;-76
2024/02/14 11:36:59;;;;;;;2.50;1.00;;;;;;;11.09;53.21;101335.50;5023480;28;20055;-76
2024/02/14 11:39:27;;;;;;;1.23;0.70;;;;;;;11.10;53.27;101331.78;5019815;28;20264;-76
2024/02/14 11:41:58;;;;;;;1.50;0.88;;;;;;;11.13;53.39;101329.66;5023433;28;20136;-76
2024/02/14 11:44:26;;;;;;;1.10;0.80;;;;;;;11.14;53.25;101325.91;5005560;28;20068;-76